sim
Sign-in with your pilot id or email,
or register
Callsign
Passwort

Schedule Details

Flight Number: RYR8183 (3)
Departure: Fuerteventura Airport (GCFV) at 10:55
Arrival: London Stansted Airport (EGSS) at 15:10
Route: Ryanair Passenger Schedule. Enter filed route here before submitting Pirep.

Weather Information
Getting current METAR information for GCFV 222330Z AUTO 36016KT 9999 NCD 21/17 Q1018
Getting current METAR information for EGSS 222320Z AUTO 25003KT 9999 NCD 19/17 Q1022

Schedule Frequency

Route Map